createdAt,value
2018-02-03T01:43:55.787Z,4.46
2018-02-03T01:46:22.897Z,4.48
2018-02-03T01:48:52.517Z,4.47
2018-02-03T01:51:19.949Z,4.30
2018-02-03T01:53:48.314Z,4.44
2018-02-03T01:56:16.818Z,4.52
2018-02-03T01:58:47.469Z,4.45
2018-02-03T02:01:14.870Z,4.51
2018-02-03T02:03:43.527Z,4.49
2018-02-03T02:06:11.235Z,4.56
2018-02-03T02:08:39.914Z,4.34
2018-02-03T02:11:06.832Z,4.37
2018-02-03T02:13:33.650Z,4.19
2018-02-03T02:16:00.472Z,4.44
2018-02-03T02:18:28.259Z,4.57
2018-02-03T02:20:55.191Z,4.50
2018-02-03T02:23:23.276Z,4.66
2018-02-03T02:25:51.994Z,4.59
2018-02-03T02:28:21.137Z,4.71
2018-02-03T02:30:48.032Z,4.31
2018-02-03T02:33:15.576Z,4.31
2018-02-03T02:35:42.472Z,4.30
2018-02-03T02:38:09.282Z,4.20
2018-02-03T02:40:36.149Z,4.23
2018-02-03T02:43:02.954Z,4.48
2018-02-03T02:45:29.808Z,4.46
2018-02-03T02:47:57.367Z,4.28
2018-02-03T02:50:24.256Z,4.41
2018-02-03T02:52:51.090Z,4.17
2018-02-03T02:55:17.951Z,4.08
2018-02-03T02:57:44.777Z,4.16
2018-02-03T03:00:11.612Z,4.20
2018-02-03T03:02:38.431Z,3.93
2018-02-03T03:05:05.285Z,3.99
2018-02-03T03:07:32.123Z,4.04
2018-02-03T03:09:58.948Z,4.09
2018-02-03T03:12:25.731Z,4.01
2018-02-03T03:14:52.552Z,4.03
2018-02-03T03:17:20.176Z,4.15
2018-02-03T03:19:46.996Z,4.18
2018-02-03T03:22:14.572Z,4.25
2018-02-03T03:24:42.081Z,4.22
2018-02-03T03:27:08.878Z,4.27
2018-02-03T03:29:35.689Z,4.14
2018-02-03T03:32:03.352Z,4.17
2018-02-03T03:34:31.027Z,4.15
2018-02-03T03:36:58.604Z,4.00
2018-02-03T03:39:26.226Z,4.08
2018-02-03T03:41:53.053Z,4.17
2018-02-03T03:44:19.863Z,4.13
2018-02-03T03:46:46.747Z,4.19
2018-02-03T03:49:13.613Z,4.11
2018-02-03T03:51:41.270Z,4.08
2018-02-03T03:54:08.144Z,4.17
2018-02-03T03:56:35.030Z,4.13
2018-02-03T03:59:02.649Z,3.98
2018-02-03T04:01:29.530Z,4.06
2018-02-03T04:03:56.390Z,4.20
2018-02-03T04:06:23.258Z,4.06
2018-02-03T04:08:50.187Z,4.14
2018-02-03T04:11:17.072Z,4.04
2018-02-03T04:13:43.899Z,4.10
2018-02-03T04:16:10.756Z,4.06
2018-02-03T04:18:37.686Z,3.94
2018-02-03T04:21:05.260Z,3.95
2018-02-03T04:23:32.080Z,3.99
2018-02-03T04:25:58.924Z,4.12
2018-02-03T04:28:25.746Z,4.01
2018-02-03T04:30:52.598Z,4.03
2018-02-03T04:33:19.413Z,4.10
2018-02-03T04:35:46.256Z,4.19
2018-02-03T04:38:13.138Z,4.25
2018-02-03T04:40:39.917Z,4.05
2018-02-03T04:43:06.792Z,4.26
2018-02-03T04:45:33.622Z,4.37
2018-02-03T04:48:00.476Z,4.35
2018-02-03T04:50:27.342Z,4.38
2018-02-03T04:52:54.202Z,4.42
2018-02-03T04:55:21.080Z,4.36
2018-02-03T04:57:47.969Z,4.36
2018-02-03T05:00:14.850Z,4.36
2018-02-03T05:02:41.745Z,4.44
2018-02-03T05:05:08.541Z,4.02
2018-02-03T05:07:35.351Z,4.03
2018-02-03T05:10:03.024Z,3.97
2018-02-03T05:12:30.582Z,3.90
2018-02-03T05:14:57.476Z,4.10
2018-02-03T05:17:24.441Z,4.10
2018-02-03T05:19:51.284Z,4.06
2018-02-03T05:22:18.155Z,4.14
2018-02-03T05:24:44.960Z,3.93
2018-02-03T05:27:11.841Z,3.66
2018-02-03T05:29:38.657Z,4.09
2018-02-03T05:32:05.655Z,4.26
2018-02-03T05:34:32.535Z,4.17
2018-02-03T05:36:59.367Z,4.19
2018-02-03T05:39:26.264Z,4.17
2018-02-03T05:41:53.076Z,4.22
2018-02-03T05:44:20.889Z,4.30
2018-02-03T05:46:47.770Z,4.36
2018-02-03T05:49:14.650Z,4.28
2018-02-03T05:51:42.279Z,3.97
2018-02-03T05:54:09.052Z,3.82
2018-02-03T05:56:35.935Z,3.37
2018-02-03T05:59:03.475Z,3.56
2018-02-03T06:01:30.315Z,3.52
2018-02-03T06:03:57.146Z,3.33
2018-02-03T06:06:24.714Z,3.24
2018-02-03T06:08:52.299Z,3.60
2018-02-03T06:11:19.871Z,3.62
2018-02-03T06:13:47.446Z,3.54
2018-02-03T06:16:15.021Z,3.19
2018-02-03T06:18:41.848Z,3.59
2018-02-03T06:21:08.674Z,3.41
2018-02-03T06:23:35.538Z,3.32
2018-02-03T06:26:02.386Z,3.65
2018-02-03T06:28:29.241Z,3.94
2018-02-03T06:30:56.845Z,4.07
2018-02-03T06:33:23.688Z,4.10
2018-02-03T06:35:50.520Z,4.11
2018-02-03T06:38:17.620Z,3.57
2018-02-03T06:40:44.538Z,3.65
2018-02-03T06:43:12.286Z,3.58
2018-02-03T06:45:39.223Z,3.43
2018-02-03T06:48:06.147Z,3.43
2018-02-03T06:50:33.088Z,3.52
2018-02-03T06:53:00.035Z,3.62
2018-02-03T06:55:26.925Z,3.22
2018-02-03T06:57:53.712Z,3.23
2018-02-03T07:00:20.557Z,3.25
2018-02-03T07:02:47.827Z,3.08
2018-02-03T07:05:14.704Z,2.94
2018-02-03T07:07:42.274Z,3.22
2018-02-03T07:10:09.153Z,3.44
2018-02-03T07:12:36.771Z,3.70
2018-02-03T07:15:03.593Z,3.83
2018-02-03T07:17:31.309Z,3.36
2018-02-03T07:19:58.174Z,3.26
2018-02-03T07:22:25.084Z,3.41
2018-02-03T07:24:52.027Z,3.74
2018-02-03T07:27:18.918Z,3.99
2018-02-03T07:29:45.903Z,4.05
2018-02-03T07:32:12.771Z,4.05
2018-02-03T07:34:39.607Z,3.98
2018-02-03T07:37:07.223Z,4.06
2018-02-03T07:39:34.156Z,3.78
2018-02-03T07:42:01.776Z,3.87
2018-02-03T07:44:28.618Z,3.76
2018-02-03T07:46:55.432Z,3.72
2018-02-03T07:49:22.315Z,3.63
2018-02-03T07:51:49.989Z,3.73
2018-02-03T07:54:17.563Z,4.02
2018-02-03T07:56:44.370Z,4.05
2018-02-03T07:59:11.229Z,4.13
2018-02-03T08:01:38.039Z,4.14
2018-02-03T08:04:04.874Z,4.04
2018-02-03T08:06:31.702Z,4.14
2018-02-03T08:08:58.670Z,4.13
2018-02-03T08:11:25.547Z,4.12
2018-02-03T08:13:52.425Z,4.18
2018-02-03T08:16:19.269Z,4.15
2018-02-03T08:18:46.201Z,4.04
2018-02-03T08:21:13.171Z,3.98
2018-02-03T08:23:40.122Z,4.09
2018-02-03T08:26:07.816Z,4.19
2018-02-03T08:28:34.799Z,4.06
2018-02-03T08:31:01.772Z,4.16
2018-02-03T08:33:28.827Z,4.17
2018-02-03T08:35:56.025Z,4.19
2018-02-03T08:38:23.057Z,4.23
2018-02-03T08:40:50.128Z,4.21
2018-02-03T08:43:17.114Z,4.19
2018-02-03T08:45:44.099Z,4.21
2018-02-03T08:48:11.128Z,4.25
2018-02-03T08:50:38.062Z,4.24
2018-02-03T08:53:04.946Z,4.26
2018-02-03T08:55:31.936Z,4.26
2018-02-03T08:57:59.147Z,4.26
2018-02-03T09:00:26.931Z,4.25
2018-02-03T09:02:53.912Z,4.40
2018-02-03T09:05:20.899Z,4.38
2018-02-03T09:07:47.854Z,4.30
2018-02-03T09:10:15.109Z,4.28
2018-02-03T09:12:42.306Z,4.24
2018-02-03T09:15:09.302Z,4.23
2018-02-03T09:17:36.350Z,4.22
2018-02-03T09:20:04.007Z,4.28
2018-02-03T09:22:31.019Z,4.27
2018-02-03T09:24:58.745Z,4.27
2018-02-03T09:27:25.584Z,4.33
2018-02-03T09:29:53.218Z,4.31
2018-02-03T09:32:20.053Z,4.25
2018-02-03T09:34:47.734Z,4.25
2018-02-03T09:37:14.735Z,4.29
2018-02-03T09:39:41.577Z,4.29
2018-02-03T09:42:08.466Z,4.44
2018-02-03T09:44:35.284Z,4.40
2018-02-03T09:47:02.167Z,4.45
2018-02-03T09:49:29.001Z,4.45
2018-02-03T09:51:56.610Z,4.41
2018-02-03T09:54:23.435Z,4.41
2018-02-03T09:56:50.278Z,4.45
2018-02-03T09:59:17.129Z,4.51
2018-02-03T10:01:44.873Z,4.46
2018-02-03T10:04:11.770Z,4.48
2018-02-03T10:06:39.440Z,4.51
2018-02-03T10:09:06.297Z,4.49
2018-02-03T10:11:33.190Z,4.53
2018-02-03T10:14:00.068Z,4.48
2018-02-03T10:16:26.931Z,4.58
2018-02-03T10:18:53.775Z,4.57
2018-02-03T10:21:20.741Z,4.62
2018-02-03T10:23:47.582Z,4.60
2018-02-03T10:26:15.172Z,4.61
2018-02-03T10:28:42.000Z,4.60
2018-02-03T10:31:08.875Z,4.57
2018-02-03T10:33:36.472Z,4.57
2018-02-03T10:36:04.065Z,4.65
2018-02-03T10:38:30.900Z,4.67
2018-02-03T10:40:58.509Z,4.65
2018-02-03T10:43:25.412Z,4.75
2018-02-03T10:45:52.249Z,4.72
2018-02-03T10:48:19.123Z,4.59
2018-02-03T10:50:46.004Z,4.63
2018-02-03T10:53:12.901Z,4.66
2018-02-03T10:55:40.013Z,4.63
2018-02-03T10:58:06.856Z,4.76
2018-02-03T11:56:25.944Z,5.27
2018-02-03T11:58:52.859Z,5.22
2018-02-03T12:01:20.523Z,5.25
2018-02-03T12:03:47.401Z,5.30
2018-02-03T12:06:14.291Z,5.37
2018-02-03T12:08:41.145Z,5.34
2018-02-03T12:11:08.123Z,5.37
2018-02-03T12:13:35.741Z,5.47
2018-02-03T12:16:05.013Z,5.48
2018-02-03T12:18:31.892Z,5.60
2018-02-03T12:20:58.734Z,5.74
2018-02-03T12:23:25.605Z,5.78
2018-02-03T12:25:52.455Z,5.86
2018-02-03T12:28:19.303Z,5.85
2018-02-03T12:30:46.206Z,5.92
2018-02-03T12:33:16.150Z,5.96
2018-02-03T12:35:45.883Z,5.93
2018-02-03T12:38:12.788Z,5.90
2018-02-03T12:40:40.442Z,5.92
2018-02-03T12:43:07.326Z,5.85
2018-02-03T12:45:35.008Z,5.86
2018-02-03T12:48:01.972Z,5.85
2018-02-03T12:50:28.955Z,5.78
2018-02-03T12:52:55.886Z,5.80
2018-02-03T12:55:23.571Z,5.87
2018-02-03T12:57:51.285Z,5.90
2018-02-03T13:00:18.244Z,5.90
2018-02-03T13:02:45.283Z,5.79
2018-02-03T13:05:12.951Z,5.90
2018-02-03T13:07:41.887Z,6.05
2018-02-03T13:10:08.860Z,6.12
2018-02-03T13:12:35.776Z,6.16
2018-02-03T13:15:02.700Z,6.24
2018-02-03T13:17:29.525Z,5.93
2018-02-03T13:19:57.315Z,5.87
2018-02-03T13:22:24.973Z,6.15
2018-02-03T13:24:52.665Z,6.14
2018-02-03T13:27:20.319Z,6.22
2018-02-03T13:29:47.352Z,6.30
2018-02-03T13:32:14.991Z,6.23
2018-02-03T13:34:43.669Z,6.32
2018-02-03T13:37:10.697Z,6.30
2018-02-03T13:39:38.977Z,6.31
2018-02-03T13:42:06.081Z,6.32
2018-02-03T13:44:34.269Z,6.25
2018-02-03T13:47:02.329Z,6.19
2018-02-03T13:49:29.607Z,6.24
2018-02-03T13:51:58.487Z,6.22
2018-02-03T14:07:29.148Z,6.11
2018-02-03T14:09:55.979Z,6.12
2018-02-03T14:12:24.774Z,6.16
2018-02-03T14:14:52.578Z,6.06
2018-02-03T14:17:21.086Z,6.08
2018-02-03T14:19:48.013Z,6.15
2018-02-03T14:22:14.918Z,6.19
2018-02-03T14:24:47.658Z,6.17
2018-02-03T14:27:14.497Z,6.12
2018-02-03T14:29:42.081Z,6.09
2018-02-03T14:32:08.938Z,6.02
2018-02-03T14:34:35.751Z,6.01
2018-02-03T14:37:02.731Z,6.04
2018-02-03T14:39:29.676Z,6.00
2018-02-03T14:41:56.577Z,5.93
2018-02-03T14:44:23.548Z,5.96
2018-02-03T14:46:50.515Z,5.88
2018-02-03T14:49:17.395Z,5.92
2018-02-03T14:51:44.340Z,5.96
2018-02-03T14:54:12.149Z,5.90
2018-02-03T14:56:40.523Z,5.83
2018-02-03T14:59:08.142Z,5.84
2018-02-03T15:01:35.829Z,5.83
2018-02-03T15:04:02.944Z,5.79
2018-02-03T15:06:30.796Z,5.79
2018-02-03T15:08:58.188Z,5.74
2018-02-03T15:11:27.025Z,5.61
2018-02-03T15:13:54.007Z,5.63
2018-02-03T15:16:20.951Z,5.62
2018-02-03T15:18:47.836Z,5.58
2018-02-03T15:21:28.290Z,5.46
2018-02-03T15:23:55.441Z,5.43
2018-02-03T15:26:22.597Z,5.42
2018-02-03T15:28:52.322Z,5.44
2018-02-03T15:31:19.617Z,5.44
2018-02-03T15:33:47.115Z,5.45
2018-02-03T15:36:15.210Z,5.37
2018-02-03T15:38:42.758Z,5.30
2018-02-03T15:41:10.077Z,5.31
2018-02-03T15:43:38.085Z,5.27
2018-02-03T15:46:05.704Z,5.34
2018-02-03T15:48:41.508Z,5.29
2018-02-03T16:15:29.447Z,5.09
2018-02-03T16:17:58.365Z,5.14
2018-02-03T16:20:29.168Z,5.06
2018-02-03T16:22:57.374Z,5.08
2018-02-03T16:25:30.018Z,5.14
2018-02-03T16:28:02.506Z,5.11
2018-02-03T16:30:30.356Z,5.07
2018-02-03T16:32:57.760Z,5.11
2018-02-03T16:35:25.285Z,5.12
2018-02-03T16:37:52.888Z,5.08
2018-02-03T16:40:20.693Z,5.05
2018-02-03T16:42:48.216Z,5.13
2018-02-03T16:45:15.806Z,5.10
2018-02-03T16:47:43.271Z,5.12
2018-02-03T16:50:10.543Z,4.94
2018-02-03T16:52:39.549Z,4.82
2018-02-03T16:55:06.662Z,4.80
2018-02-03T16:57:34.388Z,4.99
2018-02-03T17:00:02.605Z,5.01
2018-02-03T17:02:31.075Z,4.95
2018-02-03T17:04:58.429Z,4.75
2018-02-03T17:07:26.076Z,4.86
2018-02-03T17:09:53.040Z,4.71
2018-02-03T17:12:20.024Z,4.59
2018-02-03T17:14:47.023Z,4.75
2018-02-03T17:17:14.287Z,4.93
2018-02-03T17:19:42.328Z,4.92
2018-02-03T17:22:10.186Z,4.88
2018-02-03T17:24:38.438Z,4.92
2018-02-03T17:27:05.460Z,4.93
2018-02-03T17:29:32.845Z,4.94
2018-02-03T17:32:00.486Z,4.91
2018-02-03T17:34:27.389Z,4.89
2018-02-03T17:37:00.322Z,4.89
2018-02-03T17:39:27.536Z,4.87
2018-02-03T17:41:55.185Z,4.85
2018-02-03T17:44:23.728Z,4.86
2018-02-03T17:46:57.890Z,4.92
2018-02-03T17:49:24.854Z,4.90
2018-02-03T17:51:52.689Z,4.94
2018-02-03T17:54:19.842Z,4.85
2018-02-03T18:28:14.290Z,4.97
2018-02-03T18:30:42.484Z,5.00
2018-02-03T18:33:10.134Z,4.95
2018-02-03T18:35:37.579Z,4.93
2018-02-03T18:38:06.844Z,4.83
2018-02-03T18:40:34.037Z,4.89
2018-02-03T18:43:00.929Z,4.84
2018-02-03T18:45:46.937Z,4.81
2018-02-03T18:48:14.418Z,4.97
2018-02-03T18:50:41.628Z,5.03
2018-02-03T18:53:08.535Z,5.03
2018-02-03T18:55:35.493Z,5.12
2018-02-03T18:58:03.731Z,5.09
2018-02-03T19:00:31.219Z,4.94
2018-02-03T19:03:02.618Z,4.92
2018-02-03T19:05:30.253Z,4.81
2018-02-03T19:07:57.402Z,4.77
2018-02-03T19:10:24.307Z,4.82
2018-02-03T19:12:51.258Z,4.72
2018-02-03T19:15:18.393Z,4.57
2018-02-03T19:17:45.365Z,4.70
2018-02-03T19:20:12.643Z,4.79
2018-02-03T19:22:40.745Z,4.84
2018-02-03T19:25:08.443Z,4.77
2018-02-03T19:27:35.399Z,4.68
2018-02-03T19:30:02.439Z,4.66
2018-02-03T19:32:30.884Z,4.59
2018-02-03T19:34:58.575Z,4.72
2018-02-03T19:37:26.438Z,4.71
2018-02-03T19:39:55.640Z,4.77
2018-02-03T19:42:23.910Z,4.88
2018-02-03T19:44:52.518Z,4.92
2018-02-03T19:47:19.888Z,4.85
2018-02-03T19:49:46.991Z,4.91
2018-02-03T19:52:14.862Z,4.95
2018-02-03T19:54:42.723Z,4.78
2018-02-03T19:57:11.299Z,4.84
2018-02-03T19:59:38.657Z,4.94
2018-02-03T20:02:06.597Z,4.98
2018-02-03T20:04:34.430Z,4.91
2018-02-03T20:07:02.945Z,4.77
2018-02-03T20:09:31.929Z,4.80
2018-02-03T20:12:00.695Z,4.82
2018-02-03T20:14:29.344Z,4.85
2018-02-03T20:16:57.830Z,4.86
2018-02-03T20:19:26.942Z,4.85
2018-02-03T20:21:56.484Z,4.88
2018-02-03T20:24:25.268Z,4.86
2018-02-03T20:26:54.120Z,4.76
2018-02-03T20:29:22.894Z,4.77
2018-02-03T20:31:51.647Z,4.69
2018-02-03T20:34:19.338Z,4.76
2018-02-03T20:36:48.027Z,4.81
2018-02-03T20:39:16.784Z,4.83
2018-02-03T20:41:45.587Z,4.82
2018-02-03T20:44:13.800Z,4.83
2018-02-03T20:46:42.646Z,4.85
2018-02-03T20:49:10.754Z,4.66
2018-02-03T20:51:39.630Z,4.65
2018-02-03T20:54:08.224Z,4.81
2018-02-03T20:56:38.575Z,4.83
2018-02-03T20:59:08.297Z,4.76
2018-02-03T21:01:37.256Z,4.74
2018-02-03T21:04:06.328Z,4.84
2018-02-03T21:06:35.247Z,4.79
2018-02-03T21:09:04.518Z,4.74
2018-02-03T21:11:31.977Z,4.80
2018-02-03T21:14:00.746Z,4.68
2018-02-03T21:16:29.525Z,4.73
2018-02-03T21:18:57.234Z,4.72
2018-02-03T21:21:26.031Z,4.76
2018-02-03T21:23:55.541Z,4.74
2018-02-03T21:26:24.495Z,4.69
2018-02-03T21:28:52.933Z,4.63
2018-02-03T21:52:45.472Z,4.34
2018-02-03T21:55:14.037Z,4.26
2018-02-03T21:57:42.479Z,4.13
2018-02-03T22:00:10.218Z,4.23
2018-02-03T22:02:38.413Z,4.22
2018-02-03T22:05:07.324Z,4.10
2018-02-03T22:07:35.856Z,3.99
2018-02-03T22:10:04.026Z,4.00
2018-02-03T22:12:31.903Z,4.04
2018-02-03T22:14:59.074Z,3.98
2018-02-03T22:17:26.930Z,3.99
2018-02-03T22:19:54.645Z,3.92
2018-02-03T22:22:21.730Z,3.72
2018-02-03T22:24:48.678Z,3.68
2018-02-03T22:27:15.623Z,3.66
2018-02-03T22:29:43.365Z,3.40
2018-02-03T22:32:10.892Z,3.52
2018-02-03T22:34:38.065Z,3.47
2018-02-03T22:37:04.872Z,3.42
2018-02-03T22:39:33.051Z,3.44
2018-02-03T22:42:00.242Z,3.40
2018-02-03T22:44:27.750Z,3.43
2018-02-03T22:46:55.773Z,3.37
2018-02-03T22:49:22.775Z,3.31
2018-02-03T22:51:50.335Z,3.31
2018-02-03T22:54:17.512Z,3.16
2018-02-03T22:56:44.916Z,3.31
2018-02-03T22:59:12.276Z,3.41
2018-02-03T23:01:39.151Z,3.14
2018-02-03T23:04:06.419Z,3.18
2018-02-03T23:06:33.675Z,3.20
2018-02-03T23:09:00.787Z,3.13
2018-02-03T23:11:27.882Z,3.43
2018-02-03T23:13:55.533Z,3.37
2018-02-03T23:16:22.952Z,3.12
2018-02-03T23:18:50.528Z,2.93
2018-02-03T23:21:18.095Z,3.04
2018-02-03T23:23:45.957Z,2.98
2018-02-03T23:26:13.483Z,3.06
2018-02-03T23:28:40.693Z,3.05
2018-02-03T23:31:08.854Z,2.85
2018-02-03T23:33:36.168Z,2.76
2018-02-03T23:36:02.977Z,2.82
2018-02-03T23:38:30.306Z,2.87
2018-02-03T23:40:57.118Z,2.92
2018-02-03T23:43:24.026Z,2.80
2018-02-03T23:45:52.403Z,2.92
2018-02-03T23:48:20.260Z,2.87
2018-02-03T23:50:48.930Z,2.83
